JA83MP RJFM-RJFM

Flight info

Callsign JA83MP
Flight time 0h 36m
Altitude 2000
Route TGL
Aircraft SR22/L-SDGRY/S

Departure

Time 2026-05-01 13:23
Airport Miyazaki Airport (RJFM)

Arrival

Time 2026-05-01 13:59
Airport Miyazaki Airport (RJFM)
Time Latitude Longitude Altitude Speed Heading
2026-05-01 13:07 31.87882 131.44257 30 ft 0 kts 266°
2026-05-01 13:07 31.87877 131.44245 30 ft 7 kts 219°
2026-05-01 13:08 31.87837 131.44288 29 ft 15 kts 85°
2026-05-01 13:08 31.87849 131.44446 30 ft 24 kts 86°
2026-05-01 13:08 31.87864 131.44669 30 ft 31 kts 86°
2026-05-01 13:08 31.87870 131.44797 30 ft 12 kts 90°
2026-05-01 13:09 31.87870 131.44913 29 ft 14 kts 118°
2026-05-01 13:09 31.87838 131.44993 29 ft 8 kts 102°
2026-05-01 13:09 31.87838 131.45055 29 ft 0 kts 108°
2026-05-01 13:09 31.87834 131.45067 29 ft 0 kts 110°
2026-05-01 13:13 31.87832 131.45072 29 ft 5 kts 112°
2026-05-01 13:14 31.87826 131.45084 29 ft 0 kts 149°
2026-05-01 13:19 31.87825 131.45084 29 ft 0 kts 153°
2026-05-01 13:21 31.87809 131.45087 28 ft 10 kts 178°
2026-05-01 13:22 31.87727 131.45052 26 ft 10 kts 264°
2026-05-01 13:22 31.87723 131.44999 29 ft 31 kts 265°
2026-05-01 13:22 31.87690 131.44520 38 ft 78 kts 265°
2026-05-01 13:22 31.87636 131.43808 167 ft 92 kts 264°
2026-05-01 13:23 31.87581 131.43090 418 ft 88 kts 264°
2026-05-01 13:23 31.87533 131.42378 674 ft 82 kts 266°
2026-05-01 13:23 31.87481 131.41682 895 ft 95 kts 264°
2026-05-01 13:23 31.87013 131.41017 1084 ft 128 kts 209°
2026-05-01 13:24 31.86062 131.41101 1182 ft 148 kts 172°
2026-05-01 13:24 31.85082 131.41596 1094 ft 173 kts 132°
2026-05-01 13:24 31.84868 131.42970 1163 ft 172 kts 85°
2026-05-01 13:25 31.85139 131.45778 1271 ft 171 kts 83°
2026-05-01 13:25 31.84984 131.47088 1307 ft 158 kts 123°
2026-05-01 13:25 31.84130 131.47746 1256 ft 145 kts 179°
2026-05-01 13:25 31.83344 131.47290 1102 ft 125 kts 255°
2026-05-01 13:26 31.83497 131.46400 983 ft 126 kts 314°
2026-05-01 13:26 31.84330 131.46264 1039 ft 132 kts
2026-05-01 13:26 31.85049 131.47052 1000 ft 150 kts 58°
2026-05-01 13:26 31.85048 131.48254 985 ft 155 kts 121°
2026-05-01 13:27 31.84234 131.48897 1023 ft 138 kts 180°
2026-05-01 13:27 31.83483 131.48428 1011 ft 121 kts 251°
2026-05-01 13:27 31.84491 131.47256 991 ft 126 kts 358°
2026-05-01 13:28 31.85392 131.48819 879 ft 132 kts 115°
2026-05-01 13:28 31.84781 131.49496 947 ft 120 kts 174°
2026-05-01 13:29 31.84388 131.48613 992 ft 109 kts 340°
2026-05-01 13:29 31.85901 131.49007 815 ft 148 kts 79°
2026-05-01 13:30 31.84184 131.48822 1115 ft 131 kts 282°
2026-05-01 13:31 31.85633 131.47802 1078 ft 154 kts 31°
2026-05-01 13:31 31.84472 131.49234 1120 ft 124 kts 249°
2026-05-01 13:32 31.84930 131.47423 1015 ft 129 kts 320°
2026-05-01 13:33 31.85534 131.49442 1066 ft 148 kts 150°
2026-05-01 13:33 31.83841 131.49337 1081 ft 124 kts 239°
2026-05-01 13:34 31.84431 131.47968 1243 ft 122 kts 351°
2026-05-01 13:34 31.85323 131.49689 1089 ft 158 kts 114°
2026-05-01 13:35 31.83832 131.50442 1148 ft 129 kts 227°
2026-05-01 13:35 31.83512 131.49498 971 ft 131 kts 272°
2026-05-01 13:35 31.84610 131.48104 929 ft 143 kts 349°
2026-05-01 13:36 31.85530 131.48565 940 ft 155 kts 42°
2026-05-01 13:36 31.85932 131.49736 980 ft 157 kts 85°
2026-05-01 13:36 31.84663 131.51385 1093 ft 136 kts 180°
2026-05-01 13:37 31.83795 131.51152 1049 ft 132 kts 219°
2026-05-01 13:37 31.83300 131.50311 1093 ft 120 kts 251°
2026-05-01 13:37 31.83053 131.49392 1102 ft 118 kts 265°
2026-05-01 13:37 31.83127 131.48429 1037 ft 121 kts 283°
2026-05-01 13:38 31.84078 131.46783 1018 ft 129 kts 333°
2026-05-01 13:38 31.85020 131.46989 956 ft 153 kts 25°
2026-05-01 13:38 31.85656 131.48039 900 ft 165 kts 68°
2026-05-01 13:39 31.85658 131.49362 933 ft 159 kts 109°
2026-05-01 13:39 31.85024 131.50348 919 ft 155 kts 148°
2026-05-01 13:39 31.84096 131.50749 1005 ft 139 kts 185°
2026-05-01 13:39 31.83250 131.50398 992 ft 127 kts 228°
2026-05-01 13:40 31.82957 131.49496 1006 ft 119 kts 275°
2026-05-01 13:40 31.83277 131.48618 987 ft 121 kts 308°
2026-05-01 13:40 31.84033 131.48146 991 ft 133 kts 349°
2026-05-01 13:40 31.84937 131.48492 1000 ft 148 kts 31°
2026-05-01 13:41 31.85513 131.49537 821 ft 168 kts 80°
2026-05-01 13:41 31.85581 131.50836 997 ft 151 kts 83°
2026-05-01 13:41 31.85600 131.52073 989 ft 153 kts 90°
2026-05-01 13:41 31.85658 131.53346 926 ft 150 kts 84°
2026-05-01 13:42 31.85705 131.54522 821 ft 140 kts 78°
2026-05-01 13:42 31.86203 131.55344 848 ft 109 kts 28°
2026-05-01 13:42 31.86903 131.55591 839 ft 115 kts 351°
2026-05-01 13:42 31.87705 131.55380 969 ft 126 kts 339°
2026-05-01 13:43 31.88617 131.55142 981 ft 145 kts 344°
2026-05-01 13:43 31.89430 131.54629 1058 ft 126 kts 304°
2026-05-01 13:43 31.89564 131.53662 1021 ft 126 kts 257°
2026-05-01 13:43 31.89156 131.52782 1050 ft 124 kts 235°
2026-05-01 13:44 31.88539 131.52045 930 ft 128 kts 234°
2026-05-01 13:44 31.88170 131.51146 857 ft 122 kts 264°
2026-05-01 13:44 31.88129 131.50105 613 ft 131 kts 265°
2026-05-01 13:44 31.88014 131.49050 507 ft 128 kts 263°
2026-05-01 13:45 31.87954 131.48057 394 ft 115 kts 265°
2026-05-01 13:45 31.87887 131.47151 258 ft 106 kts 265°
2026-05-01 13:45 31.87823 131.46315 110 ft 99 kts 264°
2026-05-01 13:45 31.87768 131.45537 27 ft 91 kts 266°
2026-05-01 13:46 31.87716 131.44842 52 ft 85 kts 265°
2026-05-01 13:46 31.87665 131.44122 201 ft 91 kts 265°
2026-05-01 13:46 31.87587 131.43311 455 ft 103 kts 264°
2026-05-01 13:46 31.87496 131.42444 710 ft 107 kts 259°
2026-05-01 13:47 31.87252 131.41593 911 ft 123 kts 231°
2026-05-01 13:47 31.86384 131.41481 1222 ft 141 kts 169°
2026-05-01 13:47 31.85392 131.41823 1066 ft 154 kts 167°
2026-05-01 13:47 31.84612 131.42766 930 ft 176 kts 108°
2026-05-01 13:48 31.84571 131.44147 997 ft 165 kts 86°
2026-05-01 13:48 31.84582 131.45422 1182 ft 146 kts 95°
2026-05-01 13:48 31.84054 131.46317 1020 ft 129 kts 169°
2026-05-01 13:48 31.83359 131.46091 929 ft 95 kts 238°
2026-05-01 13:49 31.83350 131.45451 910 ft 81 kts 299°
2026-05-01 13:49 31.83887 131.45252 1058 ft 95 kts 356°
2026-05-01 13:49 31.84557 131.45710 945 ft 124 kts 42°
2026-05-01 13:49 31.84923 131.46671 890 ft 132 kts 81°
2026-05-01 13:50 31.84652 131.47571 956 ft 121 kts 148°
2026-05-01 13:50 31.83903 131.47795 1050 ft 109 kts 201°
2026-05-01 13:50 31.83369 131.47233 1031 ft 107 kts 259°
2026-05-01 13:50 31.83578 131.46431 1055 ft 109 kts 309°
2026-05-01 13:51 31.84174 131.45866 1079 ft 115 kts 322°
2026-05-01 13:51 31.84996 131.45880 1083 ft 140 kts 27°
2026-05-01 13:51 31.85397 131.46981 1085 ft 151 kts 95°
2026-05-01 13:51 31.84933 131.48063 1109 ft 142 kts 150°
2026-05-01 13:52 31.84049 131.48332 1083 ft 138 kts 191°
2026-05-01 13:52 31.83511 131.48018 1066 ft 124 kts 238°
2026-05-01 13:52 31.83437 131.47152 1248 ft 106 kts 289°
2026-05-01 13:52 31.83984 131.46489 1067 ft 126 kts 333°
2026-05-01 13:53 31.84852 131.46760 1069 ft 143 kts 36°
2026-05-01 13:53 31.84753 131.48885 1018 ft 150 kts 144°
2026-05-01 13:53 31.83843 131.49261 1047 ft 132 kts 189°
2026-05-01 13:54 31.83078 131.48798 1001 ft 119 kts 237°
2026-05-01 13:54 31.82888 131.47926 1004 ft 108 kts 284°
2026-05-01 13:54 31.83363 131.47206 986 ft 117 kts 326°
2026-05-01 13:54 31.84188 131.47149 1028 ft 125 kts
2026-05-01 13:55 31.84977 131.47618 1030 ft 136 kts 38°
2026-05-01 13:55 31.85424 131.48631 965 ft 149 kts 77°
2026-05-01 13:55 31.85459 131.49902 788 ft 159 kts 84°
2026-05-01 13:55 31.85564 131.51140 827 ft 150 kts 81°
2026-05-01 13:56 31.86090 131.52205 808 ft 154 kts 33°
2026-05-01 13:56 31.87053 131.52581 1071 ft 142 kts 356°
2026-05-01 13:56 31.88080 131.52664 1086 ft 150 kts 359°
2026-05-01 13:56 31.88840 131.52309 1190 ft 107 kts 291°
2026-05-01 13:57 31.88606 131.51483 898 ft 115 kts 233°
2026-05-01 13:57 31.88173 131.50690 595 ft 115 kts 258°
2026-05-01 13:57 31.88109 131.49831 556 ft 100 kts 265°
2026-05-01 13:57 31.88025 131.49029 394 ft 97 kts 264°
2026-05-01 13:58 31.87967 131.48197 275 ft 112 kts 268°
2026-05-01 13:58 31.87891 131.47360 237 ft 97 kts 264°
2026-05-01 13:58 31.87845 131.46598 122 ft 91 kts 265°
2026-05-01 13:58 31.87783 131.45816 43 ft 98 kts 265°
2026-05-01 13:59 31.87736 131.45076 28 ft 75 kts 263°
2026-05-01 13:59 31.87706 131.44712 26 ft 34 kts 266°
2026-05-01 13:59 31.87735 131.44574 27 ft 15 kts 352°
2026-05-01 13:59 31.87787 131.44567 29 ft 10 kts 358°
2026-05-01 14:00 31.87851 131.44497 30 ft 14 kts 265°
2026-05-01 14:00 31.87843 131.44382 29 ft 14 kts 265°
2026-05-01 14:00 31.87847 131.44304 30 ft 7 kts 347°
2026-05-01 14:00 31.87873 131.44300 30 ft 1 kts 309°
2026-05-01 14:01 31.87875 131.44287 30 ft 0 kts 264°